ADDS METAR Data INFO
IDs: Format: Raw Decoded Include TAF

Data at: 1136 UTC 17 Jul 2018

KRQO 171115Z AUTO 14004KT 7SM SCT090 25/24 A3002 RMK AO2 T02510235
KRQO 171050Z AUTO 15005KT 7SM CLR 25/24 A3001 RMK AO2 T02510238
KRQO 171035Z AUTO 16005KT 7SM CLR 25/24 A3001 RMK AO2 T02520238
KRQO 171015Z AUTO 17006KT 10SM CLR 25/24 A3001 RMK AO2 T02530238
KRQO 170955Z AUTO 16008KT 10SM CLR 25/24 A3000 RMK AO2 LTG DSNT N AND E T02520237
KRQO 170935Z AUTO 15007KT 10SM CLR 25/23 A3001 RMK AO2 T02500235
KRQO 170915Z AUTO 13004KT 10SM CLR 25/23 A3001 RMK AO2 T02510231
KRQO 170850Z AUTO 15007KT 10SM CLR 25/23 A3001 RMK AO2 T02520230 60010
KRQO 170840Z AUTO 17006KT 10SM CLR 25/23 A3001 RMK AO2 T02520227
KRQO 170810Z AUTO 26007KT 10SM CLR 25/22 A3003 RMK AO2 T02480224
KRQO 170755Z AUTO 24010KT 10SM CLR 25/23 A3003 RMK AO2 P0010 T02520226
KRQO 170715Z AUTO 19013G28KT 10SM -RA SCT006 SCT014 SCT090 28/19 A3003 RMK AO2 LTG DSNT SW P0010 T02750194
KRQO 170655Z AUTO 25023G30KT 10SM SCT090 28/20 A3004 RMK AO2 LTG DSNT W T02780201
KRQO 170635Z AUTO 27009KT 10SM SCT095 27/24 A3006 RMK AO2 T02730237
KRQO 170615Z AUTO 27010KT 10SM BKN095 26/24 A3005 RMK AO2 LTG DSNT W T02650239
KRQO 170555Z AUTO 10006KT 10SM CLR 27/24 A3003 RMK AO2 T02680238 10340 20267
KRQO 170535Z AUTO 09007KT 10SM SCT090 27/24 A3003 RMK AO2 T02730236
KRQO 170515Z AUTO 09005KT 10SM BKN090 28/24 A3003 RMK AO2 T02760236
KRQO 170455Z AUTO 08006KT 10SM BKN090 BKN120 28/24 A3003 RMK AO2 T02760237
KRQO 170435Z AUTO 11006KT 10SM CLR 27/24 A3003 RMK AO2 T02730236
KRQO 170415Z AUTO 11007KT 10SM CLR 27/23 A3003 RMK AO2 T02740234
KRQO 170355Z AUTO 10007KT 10SM CLR 28/23 A3003 RMK AO2 T02790232
KRQO 170335Z AUTO 10008KT 10SM CLR 28/23 A3002 RMK AO2 LTG DSNT SW AND W T02810232
KRQO 170315Z AUTO 11007KT 10SM CLR 28/23 A3002 RMK AO2 T02830233
KRQO 170255Z AUTO 11007KT 10SM CLR 29/23 A3002 RMK AO2 T02870235
KRQO 170235Z AUTO 11008KT 10SM CLR 29/23 A3002 RMK AO2 T02930235
KRQO 170215Z AUTO 11007KT 10SM CLR 29/24 A3002 RMK AO2 T02940235
KRQO 170155Z AUTO 10008KT 10SM CLR 30/23 A3001 RMK AO2 T02990235
KRQO 170135Z AUTO 11008KT CLR 31/24 A3000 RMK AO2 PWINO T03070235
KRQO 170115Z AUTO 10008KT CLR 32/23 A2999 RMK AO2 PWINO T03160233
KRQO 170055Z AUTO 10010KT CLR 32/23 A2998 RMK AO2 LTG DSNT N PWINO T03170230
KRQO 170035Z AUTO 12007KT CLR 32/23 A2997 RMK AO2 LTG DSNT N PWINO T03170232
KRQO 170015Z AUTO 11006KT CLR 33/23 A2996 RMK AO2 PWINO T03280227
KRQO 162355Z AUTO 09006KT CLR 34/20 A2997 RMK AO2 LTG DSNT NW PWINO T03420204 10363 20283 403630234 60018
KRQO 162335Z AUTO 14005KT CLR 34/20 A2997 RMK AO2 PWINO T03450203
KRQO 162315Z AUTO 13007KT CLR 33/19 A2998 RMK AO2 PWINO T03330192
KRQO 162255Z AUTO 12008KT CLR 32/19 A2998 RMK AO2 PWINO T03210195
KRQO 162235Z AUTO 14011KT 10SM CLR 31/20 A2999 RMK AO2 T03140199
KRQO 162215Z AUTO 15014KT 10SM CLR 32/23 A2999 RMK AO2 LTG DSNT SE T03160228
KRQO 162155Z AUTO 20011G14KT SCT055 30/21 A3000 RMK AO2 T03040214
KRQO 162135Z AUTO 20016KT 10SM VCTS SCT055 31/22 A3002 RMK AO2 LTG DSNT SE THRU SW T03050218
KRQO 162115Z AUTO 00000KT 10SM -RA SCT035 SCT043 32/23 A3001 RMK AO2 LTG DSNT S AND SW T03190234
KRQO 162055Z AUTO 04003KT 4SM RA SCT023 BKN034 BKN043 29/23 A3002 RMK AO2 LTG DSNT W P0017 T02850227 60017
KRQO 162035Z AUTO 14008KT SCT085 SCT120 33/22 A3002 RMK AO2 PWINO T03340216
KRQO 162015Z AUTO 16006KT SCT060 34/20 A3002 RMK AO2 PWINO T03440205
KRQO 161955Z AUTO 12009KT SCT003 SCT009 SCT070 36/22 A3003 RMK AO2 PWINO T03560220
KRQO 161935Z AUTO 06006KT SCT003 SCT009 35/22 A3003 RMK AO2 PWINO T03510218
KRQO 161915Z AUTO 06005KT CLR 35/22 A3004 RMK AO2 PWINO T03470215
KRQO 161855Z AUTO 05007KT CLR 35/22 A3004 RMK AO2 PWINO T03490218
KRQO 161835Z AUTO 08007KT SCT060 35/22 A3005 RMK AO2 PWINO T03470216
KRQO 161815Z AUTO 13004KT SCT003 SCT060 35/21 A3005 RMK AO2 PWINO T03490206
KRQO 161755Z AUTO 00000KT CLR 34/21 A3005 RMK AO2 PWINO T03430209 10347 20243
KRQO 161735Z AUTO 00000KT CLR 34/20 A3005 RMK AO2 PWINO T03390200
KRQO 161715Z AUTO 05007KT CLR 34/20 A3006 RMK AO2 PWINO T03410204
KRQO 161655Z AUTO 02004KT CLR 34/21 A3006 RMK AO2 PWINO T03380212
KRQO 161635Z AUTO 06006KT CLR 33/22 A3006 RMK AO2 PWINO T03320217
KRQO 161615Z AUTO 09004KT CLR 33/20 A3006 RMK AO2 PWINO T03280201
KRQO 161555Z AUTO 04004KT CLR 33/21 A3006 RMK AO2 PWINO T03300207
KRQO 161535Z AUTO 27003KT CLR 32/19 A3007 RMK AO2 PWINO T03210194
KRQO 161515Z AUTO 00000KT CLR 31/20 A3006 RMK AO2 PWINO T03130205
KRQO 161455Z AUTO 00000KT 10SM CLR 30/21 A3006 RMK AO2 T02950211
KRQO 161435Z AUTO 19003KT 7SM CLR 29/21 A3006 RMK AO2 T02930215
KRQO 161415Z AUTO 00000KT 7SM CLR 28/22 A3005 RMK AO2 T02830218
KRQO 161355Z AUTO 21003KT 10SM CLR 27/22 A3005 RMK AO2 T02720220
KRQO 161335Z AUTO 21004KT 10SM CLR 27/22 A3004 RMK AO2 T02650224
KRQO 161315Z AUTO 23003KT 10SM CLR 26/22 A3003 RMK AO2 T02580218
KRQO 161130Z AUTO 20003KT 10SM SCT110 24/22 A3002 RMK AO2 T02400217
KRQO 161115Z AUTO 22005KT 10SM CLR 24/22 A3002 RMK AO2 T02400218
KRQO 161055Z AUTO 23003KT 10SM CLR 24/22 A3002 RMK AO2 T02420219
KRQO 161035Z AUTO 20004KT 10SM CLR 23/22 A3002 RMK AO2 T02350223
KRQO 161015Z AUTO 13003KT 10SM CLR 24/22 A3001 RMK AO2 T02380222
KRQO 160955Z AUTO 18003KT 10SM CLR 24/22 A3002 RMK AO2 T02380223
KRQO 160935Z AUTO 19004KT 10SM CLR 24/22 A3001 RMK AO2 T02400224
KRQO 160920Z AUTO 18004KT 10SM CLR 24/22 A3001 RMK AO2 T02400223
KRQO 160855Z AUTO 18006KT 10SM CLR 24/23 A3001 RMK AO2 T02430226
KRQO 160835Z AUTO 16007KT 10SM CLR 24/23 A3001 RMK AO2 T02430226
KRQO 160815Z AUTO 16007KT 10SM CLR 25/22 A3001 RMK AO2 T02460224
KRQO 160800Z AUTO 19005KT 10SM CLR 25/23 A3000 RMK AO2 T02480226
KRQO 160730Z AUTO 16006KT 10SM CLR 25/23 A3001 RMK AO2 T02510229
KRQO 160715Z AUTO 15006KT 10SM CLR 25/23 A3002 RMK AO2 T02530229
KRQO 160655Z AUTO 14006KT 10SM CLR 25/23 A3001 RMK AO2 T02530231
KRQO 160635Z AUTO 14003KT 10SM CLR 25/23 A3002 RMK AO2 T02530232
KRQO 160615Z AUTO 12004KT 10SM CLR 25/23 A3001 RMK AO2 T02510234
KRQO 160555Z AUTO 12004KT 10SM CLR 25/23 A3002 RMK AO2 T02490234 10347 20240 60046
KRQO 160535Z AUTO 11003KT 10SM CLR 25/23 A3002 RMK AO2 T02490229
KRQO 160515Z AUTO 18005KT 10SM CLR 25/22 A3002 RMK AO2 T02520225
KRQO 160455Z AUTO 21007KT 10SM CLR 25/23 A3003 RMK AO2 T02520229
KRQO 160435Z AUTO 20005KT 10SM CLR 26/23 A3002 RMK AO2 T02560228
KRQO 160415Z AUTO 16006KT 10SM CLR 26/23 A3002 RMK AO2 T02550231
KRQO 160355Z AUTO 17004KT 10SM CLR 25/23 A3001 RMK AO2 T02530233
KRQO 160335Z AUTO 14003KT 10SM CLR 26/23 A3001 RMK AO2 T02560230
KRQO 160310Z AUTO 18003KT 10SM SCT120 26/23 A3000 RMK AO2 LTG DSNT N T02570230
KRQO 160255Z AUTO 32003KT 10SM SCT120 26/23 A3000 RMK AO2 LTG DSNT N P0001 T02550231 60046
KRQO 160235Z AUTO 12004KT 10SM SCT070 SCT095 SCT120 26/22 A2998 RMK AO2 P0001 T02590218
KRQO 160215Z AUTO 08003KT 10SM -RA SCT060 SCT070 BKN100 25/22 A2999 RMK AO2 LTG DSNT N AND NE P0001 T02540219
KRQO 160155Z AUTO 07005KT 10SM SCT046 SCT055 OVC110 25/22 A2999 RMK AO2 LTG DSNT NW THRU NE P0039 T02480221
KRQO 160135Z AUTO 11015KT 7SM -VCTSRA SCT046 BKN055 OVC120 25/22 A2998 RMK AO2 LTG DSNT ALQDS P0039 T02480218
KRQO 160115Z AUTO 14015G29KT 2 1/2SM VCTSRA SCT020 BKN041 OVC070 26/20 A2996 RMK AO2 VIS 1 1/4V5 LTG DSNT ALQDS P0035 T02610203
KRQO 160055Z AUTO 15038G44KT 3SM TSHZ BKN070 OVC090 29/18 A2996 RMK AO2 LTG DSNT ALQDS P0001
KRQO 160035Z AUTO 16023G31KT VCTS BKN070 BKN080 31/19 A2996 RMK AO2 LTG DSNT SE AND S PWINO T03130195
KRQO 160015Z AUTO 15009KT CLR 34/20 A2994 RMK AO2 LTG DSNT SE THRU SW PWINO T03450197
KRQO 152355Z AUTO 13011KT CLR 35/20 A2994 RMK AO2 PWINO T03470204 10365 20318 403650238